Time;durP1;ratioP1;P1;durP2;ratioP2;P2;SDS_P1;SDS_P2;PMS_P1;PMS_P2;Temp;Humidity;BMP_temperature;BMP_pressure;BME280_temperature;BME280_humidity;BME280_pressure;Samples;Min_cycle;Max_cycle;Signal;HPM_P1;HPM_P2
2021/04/04 00:01:13;;;;;;;28.80;6.07;;;5.60;99.90;;;;;;5074280;28;20193;-75
2021/04/04 00:03:41;;;;;;;21.03;6.10;;;5.60;99.90;;;;;;5075189;28;20291;-75
2021/04/04 00:06:07;;;;;;;21.97;5.73;;;5.70;99.90;;;;;;5074442;28;20240;-75
2021/04/04 00:08:33;;;;;;;20.20;5.30;;;5.90;99.90;;;;;;5075036;28;20205;-75
2021/04/04 00:11:00;;;;;;;32.40;5.87;;;5.90;99.90;;;;;;5075247;28;20192;-75
2021/04/04 00:13:26;;;;;;;29.80;5.37;;;5.90;99.90;;;;;;5074965;28;20573;-75
2021/04/04 00:15:52;;;;;;;31.90;5.80;;;5.90;99.90;;;;;;5074992;28;20636;-75
2021/04/04 00:18:19;;;;;;;28.53;5.07;;;6.10;99.90;;;;;;5074759;28;20732;-75
2021/04/04 00:20:46;;;;;;;20.57;5.07;;;6.10;99.90;;;;;;5075047;28;20196;-75
2021/04/04 00:23:12;;;;;;;22.53;4.97;;;6.10;99.90;;;;;;5074851;28;20193;-75
2021/04/04 00:25:39;;;;;;;26.80;5.30;;;5.90;99.90;;;;;;5074546;28;20567;-75
2021/04/04 00:28:06;;;;;;;25.13;5.53;;;5.80;99.90;;;;;;5074544;28;20193;-75
2021/04/04 00:30:32;;;;;;;27.33;6.03;;;5.90;99.90;;;;;;5074534;28;20572;-75
2021/04/04 00:32:59;;;;;;;33.30;6.27;;;6.00;99.90;;;;;;5074495;28;20684;-75
2021/04/04 00:35:26;;;;;;;23.93;5.67;;;6.10;99.90;;;;;;5074859;28;20286;-75
2021/04/04 00:37:54;;;;;;;22.27;5.43;;;6.00;99.90;;;;;;5074662;28;20201;-75
2021/04/04 00:40:24;;;;;;;24.03;5.33;;;6.00;99.90;;;;;;5074436;28;20263;-75
2021/04/04 00:42:50;;;;;;;19.63;5.30;;;6.00;99.90;;;;;;5074510;28;20201;-75
2021/04/04 00:45:18;;;;;;;30.20;5.93;;;5.90;99.90;;;;;;5074369;28;20200;-75
2021/04/04 00:47:45;;;;;;;27.53;5.60;;;6.10;99.90;;;;;;5074290;28;20292;-75
2021/04/04 00:50:14;;;;;;;20.23;4.67;;;6.10;99.90;;;;;;5074329;28;20290;-74
2021/04/04 00:52:41;;;;;;;23.17;5.30;;;5.90;99.90;;;;;;5074453;28;20201;-75
2021/04/04 00:55:10;;;;;;;21.50;4.77;;;6.00;99.90;;;;;;5074216;28;20198;-75
2021/04/04 00:57:36;;;;;;;20.03;5.00;;;6.00;99.90;;;;;;5074076;28;20622;-74
2021/04/04 01:00:06;;;;;;;26.37;5.57;;;6.10;99.90;;;;;;5073907;28;20228;-74
2021/04/04 01:02:33;;;;;;;27.73;5.57;;;6.00;99.90;;;;;;5073326;28;20197;-74
2021/04/04 01:05:01;;;;;;;19.40;5.00;;;5.90;99.90;;;;;;5074097;28;20354;-74
2021/04/04 01:07:27;;;;;;;29.20;5.77;;;6.00;99.90;;;;;;5073855;28;20208;-75
2021/04/04 01:09:54;;;;;;;24.47;4.63;;;6.00;99.90;;;;;;5073813;28;20193;-74
2021/04/04 01:12:29;;;;;;;20.90;5.40;;;5.90;99.90;;;;;;5073638;28;20219;-74
2021/04/04 01:15:01;;;;;;;18.80;5.10;;;5.90;99.90;;;;;;5073770;28;20275;-75
2021/04/04 01:17:30;;;;;;;22.87;4.83;;;6.10;99.90;;;;;;5073796;28;20303;-75
2021/04/04 01:20:14;;;;;;;23.27;5.13;;;6.20;99.90;;;;;;5073778;28;20230;-74
2021/04/04 01:23:16;;;;;;;16.67;4.33;;;6.10;99.90;;;;;;5073592;28;20668;-74
2021/04/04 01:25:49;;;;;;;25.83;4.80;;;6.00;99.90;;;;;;5073605;28;20287;-75
2021/04/04 01:28:20;;;;;;;23.70;6.23;;;6.20;99.90;;;;;;5073670;28;20205;-74
2021/04/04 01:30:48;;;;;;;21.43;5.53;;;6.30;99.90;;;;;;5073432;28;20202;-75
2021/04/04 01:33:17;;;;;;;19.70;5.27;;;6.30;99.90;;;;;;5073589;28;20209;-74
2021/04/04 01:35:47;;;;;;;24.63;5.33;;;6.30;99.90;;;;;;5073453;28;20199;-74
2021/04/04 01:38:16;;;;;;;18.77;4.93;;;6.40;99.90;;;;;;5073713;28;20205;-74
2021/04/04 01:40:45;;;;;;;21.27;5.27;;;6.50;99.90;;;;;;5073288;28;20220;-74
2021/04/04 01:43:14;;;;;;;23.57;5.67;;;6.50;99.90;;;;;;5073377;28;20636;-74
2021/04/04 01:45:42;;;;;;;19.43;5.43;;;6.40;99.90;;;;;;5073368;28;20200;-74
2021/04/04 01:48:12;;;;;;;19.43;5.43;;;6.40;99.90;;;;;;5073547;28;20201;-74
2021/04/04 01:50:39;;;;;;;23.93;5.37;;;6.30;99.90;;;;;;5073497;28;20197;-75
2021/04/04 01:53:06;;;;;;;27.27;5.23;;;6.20;99.90;;;;;;5072839;28;20291;-74
2021/04/04 01:55:34;;;;;;;25.27;5.70;;;6.20;99.90;;;;;;5073327;28;20255;-74
2021/04/04 01:58:01;;;;;;;21.67;5.70;;;6.30;99.90;;;;;;5073171;28;20298;-74
2021/04/04 02:00:29;;;;;;;18.70;5.23;;;6.20;99.90;;;;;;5073168;28;20280;-74
2021/04/04 02:02:57;;;;;;;17.17;5.07;;;6.00;99.90;;;;;;5073239;28;20193;-75
2021/04/04 02:05:25;;;;;;;23.90;5.20;;;6.00;99.90;;;;;;5073334;28;20659;-74
2021/04/04 02:07:52;;;;;;;18.47;5.03;;;6.00;99.90;;;;;;5073012;28;20199;-75
2021/04/04 02:10:21;;;;;;;19.77;5.70;;;6.10;99.90;;;;;;5073092;28;20240;-74
2021/04/04 02:12:49;;;;;;;17.17;4.37;;;5.90;99.90;;;;;;5073175;28;20193;-74
2021/04/04 02:15:16;;;;;;;17.77;3.77;;;6.00;99.90;;;;;;5072791;28;20208;-74
2021/04/04 02:17:46;;;;;;;14.73;4.17;;;5.90;99.90;;;;;;5073133;28;20220;-74
2021/04/04 02:20:17;;;;;;;19.53;4.30;;;6.00;99.90;;;;;;5072935;28;20234;-74
2021/04/04 02:22:44;;;;;;;18.47;4.43;;;6.10;99.90;;;;;;5073174;28;20292;-75
2021/04/04 02:25:12;;;;;;;16.07;4.37;;;6.10;99.90;;;;;;5077015;28;20291;-74
2021/04/04 02:27:41;;;;;;;18.70;4.27;;;6.10;99.90;;;;;;5077026;28;20288;-74
2021/04/04 02:30:09;;;;;;;21.83;4.37;;;6.10;99.90;;;;;;5077267;28;20231;-74
2021/04/04 02:32:38;;;;;;;22.53;4.20;;;6.20;99.90;;;;;;5077066;28;20219;-74
2021/04/04 02:35:07;;;;;;;23.00;4.37;;;6.20;99.90;;;;;;5076849;28;20605;-75
2021/04/04 02:37:37;;;;;;;13.73;3.90;;;6.20;99.90;;;;;;5076847;28;20197;-74
2021/04/04 02:40:10;;;;;;;14.03;3.53;;;6.10;99.90;;;;;;5076414;28;20231;-75
2021/04/04 02:42:38;;;;;;;18.80;4.27;;;6.10;99.90;;;;;;5076893;28;20195;-74
2021/04/04 02:45:07;;;;;;;18.43;3.80;;;6.20;99.90;;;;;;5076581;28;20654;-75
2021/04/04 02:47:38;;;;;;;22.53;3.80;;;6.10;99.90;;;;;;5076584;28;20287;-74
2021/04/04 02:50:07;;;;;;;18.57;4.13;;;6.10;99.90;;;;;;5077045;28;20300;-75
2021/04/04 02:52:39;;;;;;;15.33;3.33;;;6.00;99.90;;;;;;5076462;28;20235;-74
2021/04/04 02:55:08;;;;;;;16.67;3.90;;;6.10;99.90;;;;;;5076507;28;20308;-74
2021/04/04 02:57:36;;;;;;;16.27;3.97;;;6.20;99.90;;;;;;5076656;28;20199;-75
2021/04/04 03:00:07;;;;;;;19.33;4.00;;;6.30;99.90;;;;;;5076526;28;20567;-75
2021/04/04 03:02:35;;;;;;;23.83;4.00;;;6.20;99.90;;;;;;5076509;28;20298;-74
2021/04/04 03:05:02;;;;;;;16.80;3.50;;;6.10;99.90;;;;;;5076227;28;20562;-74
2021/04/04 03:07:30;;;;;;;24.67;4.00;;;6.10;99.90;;;;;;5076413;28;20253;-75
2021/04/04 03:10:01;;;;;;;14.50;3.47;;;6.20;99.90;;;;;;5076494;28;20197;-75
2021/04/04 03:12:29;;;;;;;19.07;3.43;;;6.30;99.90;;;;;;5076151;28;20709;-74
2021/04/04 03:14:58;;;;;;;21.43;3.50;;;6.30;99.90;;;;;;5076081;28;20207;-74
2021/04/04 03:17:26;;;;;;;17.27;3.90;;;6.40;99.90;;;;;;5076158;28;20203;-75
2021/04/04 03:19:53;;;;;;;22.33;3.70;;;6.20;99.90;;;;;;5075835;28;20679;-74
2021/04/04 03:22:20;;;;;;;20.23;3.67;;;6.10;99.90;;;;;;5076276;28;20566;-74
2021/04/04 03:24:48;;;;;;;17.93;4.33;;;6.30;99.90;;;;;;5076132;28;20277;-75
2021/04/04 03:27:17;;;;;;;15.30;3.60;;;6.30;99.90;;;;;;5076004;28;20198;-75
2021/04/04 03:29:45;;;;;;;15.43;3.83;;;6.10;99.90;;;;;;5075816;28;20293;-75
2021/04/04 03:32:12;;;;;;;22.07;3.47;;;6.00;99.90;;;;;;5075611;28;20212;-75
2021/04/04 03:34:39;;;;;;;21.20;4.47;;;6.00;99.90;;;;;;5075827;28;20653;-75
2021/04/04 03:37:06;;;;;;;16.87;3.60;;;6.10;99.90;;;;;;5075778;28;20209;-74
2021/04/04 03:39:32;;;;;;;13.90;4.10;;;6.20;99.90;;;;;;5075683;28;20217;-75
2021/04/04 03:42:01;;;;;;;12.80;3.17;;;6.20;99.90;;;;;;5075800;28;20695;-75
2021/04/04 03:44:32;;;;;;;15.17;3.40;;;6.20;99.90;;;;;;5075654;28;20582;-74
2021/04/04 03:46:59;;;;;;;20.57;4.23;;;6.20;99.90;;;;;;5075731;28;20215;-75
2021/04/04 03:49:26;;;;;;;21.17;3.73;;;6.30;99.90;;;;;;5076056;28;20208;-74
2021/04/04 03:51:54;;;;;;;16.50;3.97;;;6.30;99.90;;;;;;5075505;28;20253;-75
2021/04/04 03:54:22;;;;;;;21.47;4.83;;;6.40;99.90;;;;;;5075564;28;20549;-75
2021/04/04 03:56:50;;;;;;;23.00;4.33;;;6.30;99.90;;;;;;5075410;28;20257;-74
2021/04/04 03:59:18;;;;;;;17.23;3.80;;;6.20;99.90;;;;;;5075268;28;20217;-74
2021/04/04 04:01:46;;;;;;;19.70;3.90;;;6.10;99.90;;;;;;5075493;28;20225;-75
2021/04/04 04:04:14;;;;;;;20.80;3.57;;;6.20;99.90;;;;;;5075361;28;20293;-74
2021/04/04 04:06:43;;;;;;;20.93;4.03;;;6.40;99.90;;;;;;5075209;28;20741;-75
2021/04/04 04:09:13;;;;;;;23.53;4.50;;;6.40;99.90;;;;;;5075257;28;20191;-75
2021/04/04 04:11:42;;;;;;;14.63;4.03;;;6.30;99.90;;;;;;5075101;28;20263;-75
2021/04/04 04:14:11;;;;;;;19.37;4.33;;;6.20;99.90;;;;;;5075314;28;20201;-75
2021/04/04 04:16:38;;;;;;;21.63;4.07;;;6.20;99.90;;;;;;5075272;28;20193;-75
2021/04/04 04:19:06;;;;;;;24.30;4.20;;;6.10;99.90;;;;;;5075092;28;20227;-74
2021/04/04 04:21:33;;;;;;;18.30;3.80;;;6.10;99.90;;;;;;5075079;28;20200;-75
2021/04/04 04:24:00;;;;;;;20.10;4.47;;;6.20;99.90;;;;;;5074967;28;20197;-75
2021/04/04 04:26:28;;;;;;;21.40;3.73;;;6.30;99.90;;;;;;5074718;28;20199;-75
2021/04/04 04:28:55;;;;;;;20.93;4.53;;;6.30;99.90;;;;;;5075026;28;20201;-75
2021/04/04 04:31:26;;;;;;;17.33;4.30;;;6.20;99.90;;;;;;5074769;28;20649;-75
2021/04/04 04:33:55;;;;;;;18.67;4.57;;;6.20;99.90;;;;;;5074741;28;20570;-75
2021/04/04 04:36:23;;;;;;;20.27;4.27;;;6.30;99.90;;;;;;5074923;28;20197;-75
2021/04/04 04:38:51;;;;;;;17.13;4.27;;;6.30;99.90;;;;;;5074386;28;20740;-74
2021/04/04 04:41:19;;;;;;;17.57;4.87;;;6.30;99.90;;;;;;5074720;28;20192;-74
2021/04/04 04:43:51;;;;;;;16.17;5.23;;;6.20;99.90;;;;;;5074667;28;20539;-74
2021/04/04 04:46:18;;;;;;;16.20;4.30;;;6.10;99.90;;;;;;5073893;28;20207;-74
2021/04/04 04:48:45;;;;;;;17.10;4.63;;;6.20;99.90;;;;;;5074468;28;20610;-74
2021/04/04 04:51:12;;;;;;;18.23;4.77;;;6.30;99.90;;;;;;5074369;28;20200;-75
2021/04/04 04:53:39;;;;;;;18.07;4.47;;;6.40;99.90;;;;;;5074152;28;20212;-75
2021/04/04 04:56:06;;;;;;;18.63;4.77;;;6.30;99.90;;;;;;5074480;28;20228;-74
2021/04/04 04:58:35;;;;;;;14.43;4.53;;;6.30;99.90;;;;;;5074314;28;20228;-75
2021/04/04 05:01:04;;;;;;;21.10;4.70;;;6.40;99.90;;;;;;5074144;28;20225;-75
2021/04/04 05:03:30;;;;;;;17.23;4.10;;;6.40;99.90;;;;;;5074271;28;20198;-75
2021/04/04 05:06:01;;;;;;;19.63;4.23;;;6.40;99.90;;;;;;5073973;28;20196;-75
2021/04/04 05:08:29;;;;;;;23.53;4.13;;;6.40;99.90;;;;;;5073959;28;20666;-74
2021/04/04 05:10:58;;;;;;;14.27;4.43;;;6.50;99.90;;;;;;5074074;28;20205;-74
2021/04/04 05:13:25;;;;;;;18.93;5.00;;;6.50;99.90;;;;;;5073992;28;20266;-74
2021/04/04 05:15:53;;;;;;;18.67;4.30;;;6.50;99.90;;;;;;5073858;28;20292;-74
2021/04/04 05:18:19;;;;;;;20.47;5.13;;;6.50;99.90;;;;;;5073702;28;20756;-75
2021/04/04 05:20:46;;;;;;;21.40;5.10;;;6.60;99.90;;;;;;5073511;28;20315;-74
2021/04/04 05:23:19;;;;;;;12.93;5.07;;;6.60;99.90;;;;;;5073723;28;20231;-74
2021/04/04 05:25:45;;;;;;;25.97;6.20;;;6.50;99.90;;;;;;5073794;28;20207;-75
2021/04/04 05:28:12;;;;;;;19.57;5.73;;;6.50;99.90;;;;;;5073636;28;20201;-74
2021/04/04 05:30:39;;;;;;;23.80;6.33;;;6.50;99.90;;;;;;5073456;28;20215;-74
2021/04/04 05:33:05;;;;;;;23.60;5.90;;;6.50;99.90;;;;;;5073501;28;20311;-74
2021/04/04 05:35:37;;;;;;;17.37;5.27;;;6.50;99.90;;;;;;5073486;28;20201;-74
2021/04/04 05:38:04;;;;;;;19.83;5.53;;;6.60;99.90;;;;;;5073658;28;20201;-75
2021/04/04 05:40:31;;;;;;;18.73;5.60;;;6.60;99.90;;;;;;5073321;28;20773;-74
2021/04/04 05:42:59;;;;;;;23.50;6.07;;;6.60;99.90;;;;;;5073460;28;20637;-74
2021/04/04 05:45:30;;;;;;;16.97;6.10;;;6.50;99.90;;;;;;5073329;28;20203;-74
2021/04/04 05:48:24;;;;;;;18.23;5.83;;;6.60;99.90;;;;;;5073578;28;20295;-74
2021/04/04 05:51:05;;;;;;;20.57;6.67;;;6.60;99.90;;;;;;5055163;28;20658;-75
2021/04/04 05:53:42;;;;;;;20.37;6.10;;;6.70;99.90;;;;;;5073460;28;20205;-74
2021/04/04 05:56:16;;;;;;;15.77;6.10;;;6.90;99.90;;;;;;5073149;28;20201;-75
2021/04/04 05:58:49;;;;;;;21.17;6.57;;;7.00;99.90;;;;;;5072634;28;20208;-75
2021/04/04 06:01:35;;;;;;;17.90;6.07;;;7.00;99.90;;;;;;5073266;28;20332;-75
2021/04/04 06:04:21;;;;;;;18.73;7.30;;;7.00;99.90;;;;;;5073124;28;20259;-74
2021/04/04 06:07:25;;;;;;;19.40;6.30;;;7.10;99.90;;;;;;5073349;28;20227;-75
2021/04/04 06:10:06;;;;;;;18.57;6.07;;;7.20;99.90;;;;;;5025504;28;20523;-74
2021/04/04 06:12:50;;;;;;;25.10;6.50;;;7.10;99.90;;;;;;5072976;28;20201;-75
2021/04/04 06:15:26;;;;;;;16.87;5.63;;;7.30;99.90;;;;;;5073045;28;20291;-74
2021/04/04 06:18:04;;;;;;;20.73;6.60;;;7.20;99.90;;;;;;5073265;28;20729;-74
2021/04/04 06:20:40;;;;;;;16.10;5.73;;;7.30;99.90;;;;;;5073104;28;20233;-75
2021/04/04 06:23:16;;;;;;;27.83;7.17;;;7.30;99.90;;;;;;5072977;28;20201;-75
2021/04/04 06:25:51;;;;;;;26.63;6.30;;;7.40;99.90;;;;;;5072891;28;20669;-74
2021/04/04 06:28:26;;;;;;;23.83;6.13;;;7.40;99.90;;;;;;5072955;28;20205;-75
2021/04/04 06:31:01;;;;;;;22.30;6.27;;;7.50;99.90;;;;;;5072927;28;20757;-74
2021/04/04 06:33:32;;;;;;;18.53;5.97;;;7.20;99.90;;;;;;5072798;28;20299;-75
2021/04/04 06:36:09;;;;;;;23.73;6.33;;;7.10;99.90;;;;;;5073265;28;20203;-75
2021/04/04 06:38:51;;;;;;;22.67;6.50;;;7.20;99.90;;;;;;5072860;28;20320;-74
2021/04/04 06:41:32;;;;;;;23.07;6.30;;;7.40;99.90;;;;;;5072746;28;20223;-74
2021/04/04 06:44:07;;;;;;;20.37;6.60;;;7.40;99.90;;;;;;5072674;28;20233;-75
2021/04/04 06:46:48;;;;;;;20.23;5.93;;;7.60;99.90;;;;;;5072994;28;20201;-75
2021/04/04 06:49:34;;;;;;;12.43;6.00;;;7.50;99.90;;;;;;5072774;28;20206;-75
2021/04/04 06:52:09;;;;;;;22.23;6.90;;;7.50;99.90;;;;;;5072753;28;20201;-75
2021/04/04 06:54:49;;;;;;;21.10;6.50;;;7.70;99.90;;;;;;5072916;28;20259;-75
2021/04/04 06:57:26;;;;;;;20.07;6.30;;;7.80;99.90;;;;;;5072842;28;20577;-75
2021/04/04 07:00:00;;;;;;;25.67;6.77;;;7.80;99.90;;;;;;5072682;28;20225;-75
2021/04/04 07:02:33;;;;;;;16.87;5.43;;;7.90;99.90;;;;;;5072810;28;20239;-74
2021/04/04 07:05:09;;;;;;;23.90;6.63;;;8.10;99.90;;;;;;5072505;28;20253;-74
2021/04/04 07:08:07;;;;;;;22.47;5.87;;;8.20;99.90;;;;;;5072487;28;20195;-75
2021/04/04 07:10:50;;;;;;;27.40;6.47;;;8.40;99.90;;;;;;5072354;28;20206;-74
2021/04/04 07:13:33;;;;;;;20.53;6.47;;;8.30;99.90;;;;;;5076049;28;20215;-75
2021/04/04 07:16:34;;;;;;;25.57;6.73;;;8.40;99.90;;;;;;5076332;28;20195;-74
2021/04/04 07:19:32;;;;;;;19.57;6.80;;;8.70;99.90;;;;;;4994918;28;20207;-75
2021/04/04 07:22:12;;;;;;;34.97;7.23;;;8.80;99.90;;;;;;4994711;28;20212;-74
2021/04/04 07:24:56;;;;;;;19.67;6.83;;;8.70;99.90;;;;;;5056899;28;20197;-74
2021/04/04 07:27:32;;;;;;;22.90;6.63;;;9.00;99.90;;;;;;5076102;28;20297;-75
2021/04/04 07:30:29;;;;;;;21.30;6.73;;;9.00;99.90;;;;;;5075821;28;20565;-74
2021/04/04 07:33:02;;;;;;;24.70;6.33;;;8.80;99.90;;;;;;5075910;28;20209;-74
2021/04/04 07:35:39;;;;;;;24.60;7.00;;;8.80;99.90;;;;;;5075971;28;20547;-75
2021/04/04 07:38:13;;;;;;;18.47;5.60;;;8.60;99.90;;;;;;5075694;28;20256;-75
2021/04/04 07:40:46;;;;;;;27.53;8.00;;;8.50;99.90;;;;;;5075817;28;20329;-74
2021/04/04 07:43:15;;;;;;;22.30;7.37;;;8.40;99.90;;;;;;5075879;28;20206;-75
2021/04/04 07:45:51;;;;;;;27.20;7.47;;;8.50;99.90;;;;;;5075607;28;20208;-75
2021/04/04 07:48:24;;;;;;;20.03;8.27;;;8.70;99.90;;;;;;5075624;28;20301;-74
2021/04/04 07:50:59;;;;;;;19.73;7.70;;;9.00;99.90;;;;;;5075538;28;20205;-74
2021/04/04 07:53:38;;;;;;;20.73;7.67;;;8.80;99.90;;;;;;5075479;28;20296;-75
2021/04/04 07:56:14;;;;;;;22.97;7.30;;;8.80;99.90;;;;;;5075795;28;20206;-74
2021/04/04 07:58:47;;;;;;;22.23;8.83;;;9.30;99.90;;;;;;5075459;28;20207;-75
2021/04/04 08:01:17;;;;;;;24.90;9.87;;;9.50;99.90;;;;;;5075168;28;20588;-74
2021/04/04 08:03:48;;;;;;;21.43;8.10;;;9.90;99.90;;;;;;5075262;28;20676;-75
2021/04/04 08:06:18;;;;;;;25.20;9.23;;;10.00;99.90;;;;;;5075422;28;20203;-75
2021/04/04 08:08:52;;;;;;;30.90;8.70;;;10.20;99.90;;;;;;5075320;28;20202;-74
2021/04/04 08:11:23;;;;;;;26.20;9.13;;;10.40;99.90;;;;;;5075075;28;20303;-75
2021/04/04 08:13:56;;;;;;;22.10;8.33;;;10.60;99.90;;;;;;5075194;28;20288;-75
2021/04/04 08:16:30;;;;;;;24.30;9.63;;;10.60;99.90;;;;;;5075191;28;20199;-75
2021/04/04 08:18:57;;;;;;;25.07;10.73;;;10.80;99.90;;;;;;5075199;28;20202;-75
2021/04/04 08:21:28;;;;;;;29.13;11.23;;;10.40;99.90;;;;;;5073408;28;20236;-74
2021/04/04 08:23:58;;;;;;;27.97;10.97;;;10.50;99.90;;;;;;5074771;28;20205;-75
2021/04/04 08:26:28;;;;;;;29.53;10.97;;;10.40;99.90;;;;;;5075047;28;20231;-75
2021/04/04 08:29:01;;;;;;;32.50;13.67;;;10.00;99.90;;;;;;5074378;28;20201;-74
2021/04/04 08:31:30;;;;;;;36.07;14.43;;;10.00;99.90;;;;;;5074751;28;20201;-75
2021/04/04 08:34:02;;;;;;;30.00;14.83;;;10.10;99.90;;;;;;5074458;28;20227;-75
2021/04/04 08:36:33;;;;;;;31.90;14.50;;;10.20;99.90;;;;;;5074545;28;20625;-75
2021/04/04 08:39:02;;;;;;;38.00;16.43;;;10.30;99.90;;;;;;5074520;28;20199;-75
2021/04/04 08:41:33;;;;;;;32.57;15.87;;;10.30;99.90;;;;;;5074436;28;20231;-75
2021/04/04 08:44:02;;;;;;;37.77;18.97;;;10.50;99.90;;;;;;5074387;28;20207;-75
2021/04/04 08:46:35;;;;;;;38.40;19.33;;;10.70;99.90;;;;;;5074314;28;20233;-75
2021/04/04 08:49:03;;;;;;;41.07;19.43;;;10.40;99.90;;;;;;5074260;28;20304;-75
2021/04/04 08:51:34;;;;;;;44.40;18.17;;;10.30;99.90;;;;;;5074458;28;20291;-75
2021/04/04 08:54:08;;;;;;;35.17;17.73;;;9.90;99.90;;;;;;5074266;28;20204;-75
2021/04/04 08:56:34;;;;;;;34.93;17.10;;;9.80;99.90;;;;;;5074231;28;20305;-74
2021/04/04 08:59:03;;;;;;;42.63;18.27;;;9.80;99.90;;;;;;5074181;28;20195;-75
2021/04/04 09:01:35;;;;;;;32.77;17.77;;;10.10;99.90;;;;;;5073783;28;20236;-75
2021/04/04 09:04:05;;;;;;;34.47;19.87;;;10.20;99.90;;;;;;5074171;28;20202;-74
2021/04/04 09:06:37;;;;;;;40.47;19.30;;;10.00;99.90;;;;;;5073846;28;20676;-76
2021/04/04 09:09:19;;;;;;;42.33;19.20;;;9.90;99.90;;;;;;5073910;28;20212;-75
2021/04/04 09:11:47;;;;;;;43.57;17.93;;;10.10;99.90;;;;;;5073894;28;20205;-75
2021/04/04 09:14:15;;;;;;;32.90;17.23;;;10.20;99.90;;;;;;5073791;28;20663;-75
2021/04/04 09:16:51;;;;;;;38.23;16.50;;;10.30;99.90;;;;;;5073916;28;20282;-75
2021/04/04 09:19:26;;;;;;;40.67;17.03;;;10.10;99.90;;;;;;5073726;28;20202;-75
2021/04/04 09:21:55;;;;;;;40.87;18.57;;;9.90;99.90;;;;;;5073799;28;20208;-75
2021/04/04 09:24:23;;;;;;;33.40;16.47;;;10.20;99.90;;;;;;5073282;28;20207;-75
2021/04/04 09:26:50;;;;;;;32.90;17.57;;;9.90;99.90;;;;;;5073788;28;20267;-75
2021/04/04 09:29:18;;;;;;;32.30;16.90;;;9.80;99.90;;;;;;5073579;28;20205;-75
2021/04/04 09:31:50;;;;;;;31.93;16.77;;;9.90;99.90;;;;;;5073398;28;20217;-75
2021/04/04 09:34:18;;;;;;;37.67;17.07;;;10.20;99.90;;;;;;5073481;28;20274;-75
2021/04/04 09:36:46;;;;;;;35.27;15.90;;;10.40;99.90;;;;;;5073541;28;20208;-75
2021/04/04 09:39:15;;;;;;;34.03;16.13;;;10.30;99.90;;;;;;5073361;28;20229;-76
2021/04/04 09:41:43;;;;;;;37.57;18.07;;;9.80;99.90;;;;;;5073219;28;20324;-75
2021/04/04 09:44:10;;;;;;;33.57;17.43;;;9.70;99.90;;;;;;5073517;28;20579;-75
2021/04/04 09:46:50;;;;;;;33.90;17.77;;;9.90;99.90;;;;;;5073149;28;20201;-75
2021/04/04 09:49:35;;;;;;;38.37;17.43;;;10.40;99.90;;;;;;5073201;28;20566;-76
2021/04/04 09:52:18;;;;;;;29.90;16.67;;;10.50;99.90;;;;;;5073309;28;20201;-75
2021/04/04 09:55:02;;;;;;;39.83;17.70;;;10.90;99.90;;;;;;5073256;28;20203;-75
2021/04/04 09:57:30;;;;;;;30.03;17.43;;;10.90;99.90;;;;;;5076117;28;20198;-73
2021/04/04 09:59:57;;;;;;;35.67;17.90;;;11.20;99.90;;;;;;5074484;28;20250;-75
2021/04/04 10:02:31;;;;;;;31.73;17.67;;;11.50;99.90;;;;;;5073264;28;20191;-75
2021/04/04 10:04:58;;;;;;;28.57;16.97;;;11.70;99.90;;;;;;5072840;28;20240;-75
2021/04/04 10:07:28;;;;;;;34.40;17.80;;;11.60;99.90;;;;;;5072953;28;20201;-75
2021/04/04 10:09:54;;;;;;;31.93;17.83;;;11.50;99.90;;;;;;5072965;28;20292;-75
2021/04/04 10:12:21;;;;;;;34.43;17.77;;;11.40;99.90;;;;;;5072932;28;20631;-75
2021/04/04 10:15:01;;;;;;;33.30;17.00;;;11.60;99.90;;;;;;5075317;28;20220;-74
2021/04/04 10:17:27;;;;;;;33.03;17.53;;;11.50;99.90;;;;;;5075351;28;20221;-74
2021/04/04 10:19:55;;;;;;;32.97;16.70;;;11.40;99.90;;;;;;5074235;28;20218;-75
2021/04/04 10:22:21;;;;;;;32.67;18.03;;;10.90;99.90;;;;;;5072815;28;20285;-75
2021/04/04 10:24:48;;;;;;;30.77;17.43;;;11.10;99.90;;;;;;5073082;28;20198;-75
2021/04/04 10:27:25;;;;;;;30.87;17.13;;;11.50;99.90;;;;;;5073097;28;20194;-75
2021/04/04 10:30:11;;;;;;;33.80;18.50;;;11.50;99.90;;;;;;5073026;28;20201;-75
2021/04/04 10:32:38;;;;;;;32.10;17.67;;;11.80;99.90;;;;;;5072709;28;20210;-75
2021/04/04 10:35:07;;;;;;;33.67;18.07;;;11.90;99.90;;;;;;5072610;28;20670;-75
2021/04/04 10:37:33;;;;;;;30.60;18.03;;;11.50;99.90;;;;;;5072591;28;20205;-75
2021/04/04 10:40:02;;;;;;;34.23;18.07;;;11.30;99.90;;;;;;5072774;28;20709;-75
2021/04/04 10:42:29;;;;;;;36.73;18.03;;;11.70;99.90;;;;;;5072768;28;20288;-75
2021/04/04 10:45:12;;;;;;;30.47;18.90;;;12.00;99.90;;;;;;5074366;28;20223;-75
2021/04/04 10:47:39;;;;;;;30.83;17.40;;;12.10;99.90;;;;;;5074277;28;20203;-75
2021/04/04 10:50:09;;;;;;;36.23;17.73;;;12.30;99.90;;;;;;5076850;28;20231;-75
2021/04/04 10:52:36;;;;;;;33.17;17.77;;;12.20;99.90;;;;;;5076717;28;20242;-75
2021/04/04 10:55:04;;;;;;;27.87;17.20;;;12.10;99.90;;;;;;5076701;28;20207;-75
2021/04/04 10:57:32;;;;;;;36.43;17.90;;;12.50;99.90;;;;;;5076547;28;20202;-75
2021/04/04 10:59:59;;;;;;;28.70;16.30;;;12.70;99.90;;;;;;5076466;28;20722;-75
2021/04/04 11:02:26;;;;;;;33.70;16.73;;;13.10;99.90;;;;;;5076218;28;20290;-76
2021/04/04 11:04:53;;;;;;;35.87;17.83;;;13.20;99.90;;;;;;5076574;28;20199;-76
2021/04/04 11:07:19;;;;;;;30.13;16.77;;;12.60;99.90;;;;;;5076602;28;20293;-75
2021/04/04 11:09:46;;;;;;;30.87;17.63;;;11.90;99.90;;;;;;5076405;28;20279;-75
2021/04/04 11:12:15;;;;;;;29.73;16.63;;;11.60;99.90;;;;;;5076333;28;20197;-75
2021/04/04 11:14:43;;;;;;;33.70;16.90;;;11.40;99.90;;;;;;5076306;28;20198;-75
2021/04/04 11:17:13;;;;;;;30.10;17.67;;;11.40;99.90;;;;;;5076510;28;20198;-75
2021/04/04 11:19:44;;;;;;;33.50;16.97;;;11.30;99.90;;;;;;5075815;28;20206;-75
2021/04/04 11:22:15;;;;;;;29.47;16.03;;;11.50;99.90;;;;;;5076328;28;20211;-75
2021/04/04 11:24:55;;;;;;;28.27;15.27;;;11.80;99.90;;;;;;5076094;28;20264;-75
2021/04/04 11:27:40;;;;;;;31.70;14.90;;;11.60;99.90;;;;;;5075944;28;20210;-75
2021/04/04 11:30:14;;;;;;;23.30;13.50;;;11.30;99.90;;;;;;5076206;28;20194;-75
2021/04/04 11:32:44;;;;;;;26.43;12.73;;;11.30;99.90;;;;;;5076019;28;20252;-75
2021/04/04 11:35:13;;;;;;;25.67;12.47;;;11.10;99.90;;;;;;5076089;28;20296;-75
2021/04/04 11:37:45;;;;;;;24.77;12.27;;;11.20;99.90;;;;;;5075909;28;20630;-75
2021/04/04 11:40:20;;;;;;;20.33;11.53;;;11.50;99.90;;;;;;5075982;28;20322;-75
2021/04/04 11:42:49;;;;;;;25.80;12.57;;;11.70;99.90;;;;;;5075701;28;20247;-75
2021/04/04 11:45:33;;;;;;;24.13;11.83;;;12.30;99.90;;;;;;5075699;28;20230;-75
2021/04/04 11:48:30;;;;;;;27.90;11.90;;;12.70;99.90;;;;;;5075749;28;20207;-75
2021/04/04 11:51:30;;;;;;;18.73;10.63;;;13.10;99.90;;;;;;5075526;28;20279;-75
2021/04/04 11:53:56;;;;;;;21.70;10.43;;;13.20;99.90;;;;;;5075557;28;20210;-75
2021/04/04 11:56:43;;;;;;;32.03;10.87;;;12.80;99.90;;;;;;5074412;28;20195;-75
2021/04/04 11:59:10;;;;;;;22.40;9.30;;;12.90;99.90;;;;;;5075890;28;20242;-75
2021/04/04 12:01:37;;;;;;;17.57;7.87;;;11.80;99.90;;;;;;5075553;28;20586;-75
2021/04/04 12:04:21;;;;;;;23.10;7.63;;;11.60;99.90;;;;;;5075393;28;20205;-75
2021/04/04 12:07:05;;;;;;;18.67;7.37;;;11.70;99.90;;;;;;5075334;28;20286;-75
2021/04/04 12:09:32;;;;;;;14.03;7.47;;;11.40;99.90;;;;;;5075492;28;20206;-75
2021/04/04 12:11:58;;;;;;;19.90;7.90;;;11.60;99.90;;;;;;5075358;28;20205;-75
2021/04/04 12:14:25;;;;;;;14.40;6.70;;;11.30;99.90;;;;;;5075315;28;20297;-75
2021/04/04 12:16:51;;;;;;;16.57;6.40;;;11.40;99.90;;;;;;5074936;28;20676;-75
2021/04/04 12:19:25;;;;;;;22.13;7.80;;;11.20;99.90;;;;;;5075087;28;20191;-75
2021/04/04 12:21:52;;;;;;;20.80;7.63;;;11.10;99.90;;;;;;5075299;28;20229;-75
2021/04/04 12:24:20;;;;;;;15.23;7.13;;;11.20;99.90;;;;;;5075503;28;20290;-75
2021/04/04 12:26:46;;;;;;;21.57;7.47;;;11.40;99.90;;;;;;5075079;28;20202;-75
2021/04/04 12:29:13;;;;;;;18.63;7.80;;;11.60;99.90;;;;;;5075300;28;20198;-75
2021/04/04 12:31:40;;;;;;;19.33;7.10;;;11.40;99.90;;;;;;5074688;28;20248;-75
2021/04/04 12:34:07;;;;;;;16.13;6.90;;;11.80;99.90;;;;;;5074742;28;20206;-75
2021/04/04 12:36:43;;;;;;;17.37;7.00;;;12.10;99.90;;;;;;5075248;28;20233;-75
2021/04/04 12:39:10;;;;;;;18.23;7.17;;;12.40;99.90;;;;;;5074815;28;20234;-75
2021/04/04 12:41:38;;;;;;;16.57;7.17;;;12.60;99.90;;;;;;5074808;28;20632;-75
2021/04/04 12:44:04;;;;;;;18.33;6.97;;;12.60;99.90;;;;;;5074734;28;20249;-75
2021/04/04 12:46:31;;;;;;;15.40;7.23;;;12.40;99.90;;;;;;5074338;28;20694;-75
2021/04/04 12:48:58;;;;;;;18.87;7.33;;;12.50;99.90;;;;;;5074839;28;20286;-75
2021/04/04 12:51:24;;;;;;;12.47;7.07;;;12.50;99.90;;;;;;5074492;28;20667;-74
2021/04/04 12:53:51;;;;;;;19.53;7.27;;;12.30;99.90;;;;;;5074493;28;20562;-75
2021/04/04 12:56:33;;;;;;;16.47;7.20;;;12.70;99.90;;;;;;5074361;28;20686;-75
2021/04/04 12:59:00;;;;;;;14.33;6.47;;;13.00;99.90;;;;;;5074169;28;20210;-75
2021/04/04 13:01:26;;;;;;;15.23;6.70;;;12.90;99.90;;;;;;5074512;28;20322;-75